createdAt,value
2019-05-19T00:00:00.214Z,0
2019-05-19T00:01:09.963Z,0
2019-05-19T00:02:19.923Z,0
2019-05-19T00:03:29.369Z,0
2019-05-19T00:04:39.088Z,0
2019-05-19T00:05:48.845Z,0
2019-05-19T00:06:58.828Z,0
2019-05-19T00:08:08.572Z,0
2019-05-19T00:09:21.422Z,0
2019-05-19T00:10:31.404Z,0
2019-05-19T00:11:41.107Z,0
2019-05-19T00:12:50.852Z,0
2019-05-19T00:14:00.561Z,0
2019-05-19T00:15:10.512Z,0
2019-05-19T00:16:20.216Z,0
2019-05-19T00:17:29.960Z,0
2019-05-19T00:18:39.695Z,0
2019-05-19T00:19:49.717Z,0
2019-05-19T00:20:59.666Z,0
2019-05-19T00:22:09.368Z,0
2019-05-19T00:23:19.319Z,0
2019-05-19T00:24:28.780Z,0
2019-05-19T00:25:38.843Z,0
2019-05-19T00:26:48.806Z,0
2019-05-19T00:27:58.779Z,0
2019-05-19T00:29:08.489Z,0
2019-05-19T00:30:18.459Z,0
2019-05-19T00:31:28.172Z,0
2019-05-19T00:32:38.141Z,0
2019-05-19T00:33:47.848Z,0
2019-05-19T00:34:57.543Z,0
2019-05-19T00:36:06.997Z,0
2019-05-19T00:37:16.523Z,0
2019-05-19T00:38:26.214Z,0
2019-05-19T00:39:36.262Z,0
2019-05-19T00:40:46.248Z,0
2019-05-19T00:41:55.962Z,0
2019-05-19T00:43:05.691Z,0
2019-05-19T00:44:15.669Z,0
2019-05-19T00:45:25.363Z,0
2019-05-19T00:46:35.320Z,0
2019-05-19T00:47:45.282Z,0
2019-05-19T00:48:55.252Z,0
2019-05-19T00:50:05.246Z,0
2019-05-19T00:51:15.216Z,0
2019-05-19T00:52:24.952Z,0
2019-05-19T00:53:34.938Z,0
2019-05-19T00:54:44.896Z,0
2019-05-19T00:55:54.860Z,0
2019-05-19T00:57:04.572Z,0
2019-05-19T00:58:14.277Z,0
2019-05-19T00:59:23.982Z,0
2019-05-19T01:00:33.940Z,0
2019-05-19T01:01:43.936Z,0
2019-05-19T01:02:53.905Z,0
2019-05-19T01:04:03.619Z,0
2019-05-19T01:05:13.578Z,0
2019-05-19T01:06:23.286Z,0
2019-05-19T01:07:33.246Z,0
2019-05-19T01:08:43.192Z,0
2019-05-19T01:09:52.908Z,0
2019-05-19T01:11:02.885Z,0
2019-05-19T01:12:12.959Z,0
2019-05-19T01:13:22.661Z,0
2019-05-19T01:14:32.375Z,0
2019-05-19T01:15:42.075Z,0
2019-05-19T01:16:51.821Z,0
2019-05-19T01:18:01.767Z,0
2019-05-19T01:19:11.757Z,0
2019-05-19T01:20:21.711Z,0
2019-05-19T01:21:31.686Z,0
2019-05-19T01:22:41.405Z,0
2019-05-19T01:23:51.139Z,0
2019-05-19T01:25:00.589Z,0
2019-05-19T01:26:10.597Z,0
2019-05-19T01:27:20.557Z,0
2019-05-19T01:28:30.513Z,0
2019-05-19T01:29:40.468Z,0
2019-05-19T01:30:50.165Z,0
2019-05-19T01:32:00.175Z,0
2019-05-19T01:33:09.621Z,0
2019-05-19T01:34:19.322Z,0
2019-05-19T01:35:29.014Z,0
2019-05-19T01:36:38.741Z,0
2019-05-19T01:37:48.247Z,0
2019-05-19T01:38:58.213Z,0
2019-05-19T01:40:08.193Z,0
2019-05-19T01:41:17.907Z,0
2019-05-19T01:42:27.621Z,0
2019-05-19T01:43:37.576Z,0
2019-05-19T01:44:47.323Z,0
2019-05-19T01:45:57.291Z,0
2019-05-19T01:47:06.731Z,0
2019-05-19T01:48:16.688Z,0
2019-05-19T01:49:26.394Z,0
2019-05-19T01:50:36.103Z,0
2019-05-19T01:51:46.091Z,0
2019-05-19T01:52:55.549Z,0
2019-05-19T01:54:05.512Z,0
2019-05-19T01:55:15.471Z,0
2019-05-19T01:56:25.180Z,0
2019-05-19T01:57:35.149Z,0
2019-05-19T01:58:44.849Z,0
2019-05-19T01:59:54.816Z,0
2019-05-19T02:01:04.855Z,0
2019-05-19T02:02:14.852Z,0
2019-05-19T02:03:24.825Z,0
2019-05-19T02:04:34.797Z,0
2019-05-19T02:05:44.512Z,0
2019-05-19T02:06:54.473Z,0
2019-05-19T02:08:04.199Z,0
2019-05-19T02:09:13.892Z,0
2019-05-19T02:10:23.872Z,0
2019-05-19T02:11:33.951Z,0
2019-05-19T02:12:43.948Z,0
2019-05-19T02:13:53.921Z,0
2019-05-19T02:15:03.881Z,0
2019-05-19T02:16:13.601Z,0
2019-05-19T02:17:23.313Z,0
2019-05-19T02:18:33.259Z,0
2019-05-19T02:19:43.226Z,0
2019-05-19T02:20:53.199Z,0
2019-05-19T02:22:03.159Z,0
2019-05-19T02:23:12.625Z,0
2019-05-19T02:24:22.648Z,0
2019-05-19T02:25:32.627Z,0
2019-05-19T02:26:42.603Z,0
2019-05-19T02:27:52.556Z,0
2019-05-19T02:29:02.507Z,0
2019-05-19T02:30:12.706Z,0
2019-05-19T02:31:22.183Z,0
2019-05-19T02:32:31.917Z,0
2019-05-19T02:33:45.273Z,0
2019-05-19T02:34:55.271Z,0
2019-05-19T02:36:04.737Z,0
2019-05-19T02:37:14.456Z,0
2019-05-19T02:38:24.441Z,0
2019-05-19T02:39:34.151Z,0
2019-05-19T02:40:43.860Z,0
2019-05-19T02:41:53.873Z,0
2019-05-19T02:43:03.653Z,0
2019-05-19T02:44:13.391Z,0
2019-05-19T02:45:23.117Z,0
2019-05-19T02:46:33.089Z,0
2019-05-19T02:47:43.073Z,0
2019-05-19T02:48:53.048Z,0
2019-05-19T02:50:02.780Z,0
2019-05-19T02:51:12.795Z,0
2019-05-19T02:52:22.767Z,0
2019-05-19T02:53:32.248Z,0
2019-05-19T02:54:41.953Z,0
2019-05-19T02:55:51.669Z,0
2019-05-19T02:57:01.411Z,0
2019-05-19T02:58:11.429Z,0
2019-05-19T02:59:21.401Z,5
2019-05-19T03:00:31.409Z,5
2019-05-19T03:01:41.414Z,5
2019-05-19T03:02:51.373Z,5
2019-05-19T03:04:01.357Z,5
2019-05-19T03:05:11.348Z,10
2019-05-19T03:06:21.080Z,10
2019-05-19T03:07:31.054Z,10
2019-05-19T03:08:41.031Z,10
2019-05-19T03:09:51.009Z,10
2019-05-19T03:11:00.763Z,15
2019-05-19T03:12:10.533Z,15
2019-05-19T03:13:20.493Z,15
2019-05-19T03:14:30.058Z,15
2019-05-19T03:15:39.783Z,15
2019-05-19T03:16:49.744Z,20
2019-05-19T03:17:59.702Z,20
2019-05-19T03:19:09.174Z,20
2019-05-19T03:20:19.155Z,20
2019-05-19T03:21:28.891Z,25
2019-05-19T03:22:38.904Z,25
2019-05-19T03:23:48.650Z,25
2019-05-19T03:24:58.641Z,25
2019-05-19T03:26:07.881Z,30
2019-05-19T03:27:17.853Z,30
2019-05-19T03:28:27.815Z,30
2019-05-19T03:29:37.546Z,30
2019-05-19T03:30:47.548Z,35
2019-05-19T03:31:57.596Z,35
2019-05-19T03:33:06.884Z,35
2019-05-19T03:34:16.869Z,35
2019-05-19T03:35:26.818Z,40
2019-05-19T03:36:36.822Z,40
2019-05-19T03:37:46.287Z,40
2019-05-19T03:38:56.103Z,45
2019-05-19T03:40:06.069Z,45
2019-05-19T03:41:16.051Z,45
2019-05-19T03:42:26.048Z,50
2019-05-19T03:43:35.749Z,50
2019-05-19T03:44:45.451Z,55
2019-05-19T03:45:55.169Z,55
2019-05-19T03:47:05.130Z,55
2019-05-19T03:48:14.893Z,55
2019-05-19T03:49:24.872Z,60
2019-05-19T03:50:34.429Z,60
2019-05-19T03:51:44.190Z,60
2019-05-19T03:52:54.152Z,60
2019-05-19T03:54:04.139Z,65
2019-05-19T03:55:14.103Z,65
2019-05-19T03:56:24.178Z,65
2019-05-19T03:57:33.894Z,70
2019-05-19T03:58:43.867Z,70
2019-05-19T03:59:53.842Z,70
2019-05-19T04:01:03.827Z,75
2019-05-19T04:02:13.799Z,75
2019-05-19T04:03:23.694Z,80
2019-05-19T04:04:33.509Z,80
2019-05-19T04:05:43.251Z,80
2019-05-19T04:06:52.726Z,85
2019-05-19T04:08:02.716Z,85
2019-05-19T04:09:12.665Z,90
2019-05-19T04:10:22.375Z,90
2019-05-19T04:11:32.361Z,95
2019-05-19T04:12:42.327Z,95
2019-05-19T04:13:52.064Z,100
2019-05-19T04:15:02.074Z,100
2019-05-19T04:16:12.061Z,105
2019-05-19T04:17:21.796Z,105
2019-05-19T04:18:31.791Z,110
2019-05-19T04:19:41.788Z,110
2019-05-19T04:20:51.502Z,115
2019-05-19T04:22:01.462Z,115
2019-05-19T04:23:11.175Z,115
2019-05-19T04:24:21.167Z,115
2019-05-19T04:25:30.881Z,120
2019-05-19T04:26:40.621Z,120
2019-05-19T04:27:50.607Z,120
2019-05-19T04:29:00.593Z,120
2019-05-19T04:30:10.725Z,125
2019-05-19T04:31:20.741Z,125
2019-05-19T04:32:30.707Z,125
2019-05-19T04:33:40.679Z,125
2019-05-19T04:34:50.637Z,125
2019-05-19T04:36:04.779Z,130
2019-05-19T04:37:14.492Z,130
2019-05-19T04:38:24.218Z,135
2019-05-19T04:39:34.200Z,135
2019-05-19T04:40:44.174Z,140
2019-05-19T04:41:54.159Z,140
2019-05-19T04:43:04.156Z,145
2019-05-19T04:44:13.876Z,145
2019-05-19T04:45:23.839Z,145
2019-05-19T04:46:33.816Z,150
2019-05-19T04:47:43.560Z,150
2019-05-19T04:48:53.280Z,145
2019-05-19T04:50:02.771Z,150
2019-05-19T04:51:12.778Z,150
2019-05-19T04:52:22.345Z,155
2019-05-19T04:53:32.331Z,160
2019-05-19T04:54:42.295Z,165
2019-05-19T04:55:52.274Z,170
2019-05-19T04:57:02.225Z,175
2019-05-19T04:58:11.934Z,180
2019-05-19T04:59:21.893Z,190
2019-05-19T05:00:31.633Z,190
2019-05-19T05:01:41.352Z,195
2019-05-19T05:02:51.078Z,200
2019-05-19T05:04:01.080Z,200
2019-05-19T05:05:11.211Z,200
2019-05-19T05:06:21.190Z,200
2019-05-19T05:07:30.935Z,200
2019-05-19T05:08:40.919Z,200
2019-05-19T05:09:50.624Z,200
2019-05-19T05:11:00.591Z,195
2019-05-19T05:12:10.573Z,200
2019-05-19T05:13:20.322Z,200
2019-05-19T05:14:30.325Z,195
2019-05-19T05:15:40.036Z,195
2019-05-19T05:16:50.144Z,190
2019-05-19T05:17:59.854Z,190
2019-05-19T05:19:09.820Z,190
2019-05-19T05:20:19.540Z,190
2019-05-19T05:21:29.482Z,195
2019-05-19T05:22:39.176Z,190
2019-05-19T05:23:49.110Z,190
2019-05-19T05:24:58.330Z,185
2019-05-19T05:26:07.790Z,185
2019-05-19T05:27:17.514Z,185
2019-05-19T05:28:27.480Z,185
2019-05-19T05:29:36.925Z,185
2019-05-19T05:30:46.612Z,190
2019-05-19T05:31:56.560Z,190
2019-05-19T05:33:06.009Z,195
2019-05-19T05:34:15.489Z,195
2019-05-19T05:35:25.022Z,200
2019-05-19T05:36:37.176Z,205
2019-05-19T05:37:46.904Z,210
2019-05-19T05:38:56.612Z,220
2019-05-19T05:40:06.604Z,215
2019-05-19T05:41:16.072Z,215
2019-05-19T05:42:26.040Z,215
2019-05-19T05:43:36.015Z,210
2019-05-19T05:44:45.970Z,205
2019-05-19T05:45:55.935Z,205
2019-05-19T05:47:05.882Z,205
2019-05-19T05:48:15.886Z,205
2019-05-19T05:49:25.619Z,200
2019-05-19T05:50:35.578Z,205
2019-05-19T05:51:45.048Z,200
2019-05-19T05:52:54.762Z,195
2019-05-19T05:54:04.704Z,190
2019-05-19T05:55:14.416Z,185
2019-05-19T05:56:24.118Z,185
2019-05-19T05:57:33.863Z,180
2019-05-19T05:58:43.584Z,180
2019-05-19T05:59:53.556Z,180
2019-05-19T06:01:03.553Z,180
2019-05-19T06:02:13.036Z,175
2019-05-19T06:03:23.033Z,175
2019-05-19T06:04:33.005Z,175
2019-05-19T06:05:43.026Z,175
2019-05-19T06:06:55.397Z,175
2019-05-19T06:08:05.108Z,175
2019-05-19T06:09:15.075Z,175
2019-05-19T06:10:25.052Z,175
2019-05-19T06:11:34.778Z,175
2019-05-19T06:12:44.753Z,175
2019-05-19T06:13:56.893Z,175
2019-05-19T06:15:06.600Z,180
2019-05-19T06:16:16.347Z,180
2019-05-19T06:17:26.051Z,185
2019-05-19T06:18:35.776Z,185
2019-05-19T06:19:45.248Z,185
2019-05-19T06:20:54.717Z,190
2019-05-19T06:22:04.652Z,190
2019-05-19T06:23:14.626Z,195
2019-05-19T06:24:24.588Z,195
2019-05-19T06:25:34.896Z,195
2019-05-19T06:26:44.938Z,205
2019-05-19T06:27:54.643Z,215
2019-05-19T06:29:04.610Z,220
2019-05-19T06:30:17.918Z,220
2019-05-19T06:31:27.623Z,220
2019-05-19T06:32:37.592Z,220
2019-05-19T06:33:47.042Z,220
2019-05-19T06:34:57.087Z,220
2019-05-19T06:36:06.791Z,220
2019-05-19T06:37:16.774Z,220
2019-05-19T06:38:26.730Z,220
2019-05-19T06:39:36.190Z,220
2019-05-19T06:40:46.158Z,215
2019-05-19T06:41:56.103Z,215
2019-05-19T06:43:06.078Z,215
2019-05-19T06:44:16.070Z,215
2019-05-19T06:45:26.276Z,215
2019-05-19T06:46:36.263Z,215
2019-05-19T06:47:45.980Z,215
2019-05-19T06:48:55.449Z,215
2019-05-19T06:50:05.416Z,210
2019-05-19T06:51:15.382Z,210
2019-05-19T06:52:25.364Z,210
2019-05-19T06:53:34.851Z,210
2019-05-19T06:54:44.807Z,210
2019-05-19T06:55:54.524Z,215
2019-05-19T06:57:04.497Z,215
2019-05-19T06:58:14.209Z,215
2019-05-19T06:59:23.932Z,215
2019-05-19T07:00:33.687Z,215
2019-05-19T07:01:43.649Z,215
2019-05-19T07:02:53.381Z,215
2019-05-19T07:04:02.592Z,215
2019-05-19T07:05:12.321Z,215
2019-05-19T07:06:22.037Z,220
2019-05-19T07:07:32.033Z,220
2019-05-19T07:08:42.040Z,220
2019-05-19T07:10:06.912Z,220
2019-05-19T07:11:16.875Z,220
2019-05-19T07:12:26.340Z,220
2019-05-19T07:13:36.296Z,220
2019-05-19T07:14:46.014Z,220
2019-05-19T07:15:56.001Z,220
2019-05-19T07:17:05.480Z,220
2019-05-19T07:18:15.192Z,220
2019-05-19T07:19:24.671Z,220
2019-05-19T07:20:34.382Z,220
2019-05-19T07:21:44.383Z,220
2019-05-19T07:22:54.139Z,220
2019-05-19T07:24:04.097Z,220
2019-05-19T07:25:13.805Z,225
2019-05-19T07:26:23.540Z,225
2019-05-19T07:27:33.253Z,225
2019-05-19T07:28:43.219Z,225
2019-05-19T07:29:53.417Z,230
2019-05-19T07:31:03.173Z,230
2019-05-19T07:32:13.176Z,230
2019-05-19T07:33:23.135Z,230
2019-05-19T07:34:32.931Z,235
2019-05-19T07:35:42.921Z,235
2019-05-19T07:36:52.909Z,235
2019-05-19T07:38:02.876Z,235
2019-05-19T07:39:12.853Z,235
2019-05-19T07:40:22.829Z,235
2019-05-19T07:41:32.576Z,235
2019-05-19T07:42:42.289Z,240
2019-05-19T07:43:52.231Z,240
2019-05-19T07:45:02.195Z,240
2019-05-19T07:46:12.159Z,240
2019-05-19T07:47:22.109Z,245
2019-05-19T07:48:31.564Z,245
2019-05-19T07:49:41.006Z,245
2019-05-19T07:50:50.201Z,235
2019-05-19T07:51:59.906Z,240
2019-05-19T07:53:09.941Z,250
2019-05-19T07:54:19.660Z,250
2019-05-19T07:55:29.623Z,240
2019-05-19T07:56:39.651Z,250
2019-05-19T07:57:49.371Z,250
2019-05-19T07:58:59.344Z,255
2019-05-19T08:00:09.580Z,245
2019-05-19T08:01:19.680Z,255
2019-05-19T08:02:29.391Z,260
2019-05-19T08:03:39.505Z,265
2019-05-19T08:04:49.391Z,270
2019-05-19T08:06:01.873Z,270
2019-05-19T08:07:11.869Z,275
2019-05-19T08:08:21.574Z,275
2019-05-19T08:09:31.549Z,270
2019-05-19T08:10:41.278Z,280
2019-05-19T08:11:51.276Z,285
2019-05-19T08:13:01.007Z,280
2019-05-19T08:14:10.958Z,290
2019-05-19T08:15:20.913Z,290
2019-05-19T08:16:30.941Z,290
2019-05-19T08:17:40.665Z,305
2019-05-19T08:18:50.396Z,305
2019-05-19T08:20:00.363Z,310
2019-05-19T08:21:10.072Z,305
2019-05-19T08:22:20.057Z,295
2019-05-19T08:23:29.249Z,285
2019-05-19T08:24:38.955Z,280
2019-05-19T08:25:48.997Z,275
2019-05-19T08:26:58.963Z,275
2019-05-19T08:28:18.161Z,280
2019-05-19T08:29:28.143Z,275
2019-05-19T08:30:38.154Z,275
2019-05-19T08:31:47.875Z,275
2019-05-19T08:32:57.981Z,275
2019-05-19T08:34:08.286Z,280
2019-05-19T08:35:18.281Z,280
2019-05-19T08:36:28.277Z,280
2019-05-19T08:37:37.756Z,280
2019-05-19T08:38:47.910Z,280
2019-05-19T08:39:57.918Z,285
2019-05-19T08:41:08.137Z,285
2019-05-19T08:42:18.145Z,290
2019-05-19T08:43:28.106Z,290
2019-05-19T08:44:38.067Z,290
2019-05-19T08:45:48.044Z,290
2019-05-19T08:46:57.494Z,300
2019-05-19T08:48:07.230Z,300
2019-05-19T08:49:16.960Z,310
2019-05-19T08:50:26.907Z,310
2019-05-19T08:51:36.893Z,315
2019-05-19T08:52:46.882Z,325
2019-05-19T08:53:56.620Z,420
2019-05-19T08:55:06.138Z,460
2019-05-19T08:56:16.121Z,445
2019-05-19T08:57:26.116Z,430
2019-05-19T08:58:36.094Z,435
2019-05-19T08:59:46.054Z,425
2019-05-19T09:00:55.778Z,420
2019-05-19T09:02:05.816Z,420
2019-05-19T09:03:15.321Z,415
2019-05-19T09:04:25.279Z,410
2019-05-19T09:05:34.766Z,405
2019-05-19T09:06:44.466Z,405
2019-05-19T09:07:53.918Z,410
2019-05-19T09:09:03.388Z,405
2019-05-19T09:10:13.355Z,400
2019-05-19T09:11:23.350Z,400
2019-05-19T09:12:33.131Z,400
2019-05-19T09:13:43.171Z,395
2019-05-19T09:14:53.145Z,395
2019-05-19T09:16:03.127Z,400
2019-05-19T09:17:13.049Z,400
2019-05-19T09:18:22.818Z,400
2019-05-19T09:19:32.786Z,405
2019-05-19T09:20:42.764Z,405
2019-05-19T09:21:52.734Z,405
2019-05-19T09:23:02.458Z,410
2019-05-19T09:24:12.164Z,425
2019-05-19T09:25:21.862Z,415
2019-05-19T09:26:31.872Z,420
2019-05-19T09:27:41.875Z,430
2019-05-19T09:28:51.608Z,430
2019-05-19T09:30:01.081Z,440
2019-05-19T09:31:11.340Z,440
2019-05-19T09:32:21.316Z,445
2019-05-19T09:33:30.805Z,445
2019-05-19T09:34:40.805Z,450
2019-05-19T09:35:50.775Z,455
2019-05-19T09:37:00.500Z,460
2019-05-19T09:38:10.371Z,465
2019-05-19T09:39:20.431Z,490
2019-05-19T09:40:33.776Z,610
2019-05-19T09:41:43.774Z,760
2019-05-19T09:42:53.928Z,795
2019-05-19T09:44:04.144Z,830
2019-05-19T09:45:14.214Z,855
2019-05-19T09:46:23.950Z,875
2019-05-19T09:47:33.707Z,880
2019-05-19T09:48:43.692Z,880
2019-05-19T09:49:53.673Z,825
2019-05-19T09:51:03.456Z,775
2019-05-19T09:52:16.861Z,705
2019-05-19T09:53:27.080Z,665
2019-05-19T09:54:51.234Z,645
2019-05-19T09:56:00.949Z,650
2019-05-19T09:57:10.905Z,645
2019-05-19T09:58:26.922Z,650
2019-05-19T09:59:36.646Z,655
2019-05-19T10:00:46.387Z,665
2019-05-19T10:01:56.148Z,665
2019-05-19T10:03:06.044Z,675
2019-05-19T10:04:16.701Z,695
2019-05-19T10:05:26.680Z,730
2019-05-19T10:06:36.427Z,815
2019-05-19T10:07:46.194Z,860
2019-05-19T10:08:55.932Z,800
2019-05-19T10:10:05.954Z,760
2019-05-19T10:11:15.916Z,805
2019-05-19T10:12:25.621Z,810
2019-05-19T10:13:37.749Z,815
2019-05-19T10:14:47.875Z,830
2019-05-19T10:15:57.594Z,835
2019-05-19T10:17:07.538Z,870
2019-05-19T10:18:17.245Z,810
2019-05-19T10:19:27.219Z,935
2019-05-19T10:20:37.204Z,955
2019-05-19T10:21:47.196Z,960
2019-05-19T10:22:57.172Z,925
2019-05-19T10:24:06.891Z,925
2019-05-19T10:25:30.975Z,990
2019-05-19T10:26:41.021Z,1040
2019-05-19T10:27:51.214Z,1030
2019-05-19T10:29:01.173Z,1075
2019-05-19T10:30:10.911Z,740
2019-05-19T10:31:20.892Z,1135
2019-05-19T10:32:30.634Z,1170
2019-05-19T10:33:40.601Z,1130
2019-05-19T10:34:50.316Z,475
2019-05-19T10:36:00.281Z,475
2019-05-19T10:37:10.253Z,1175
2019-05-19T10:38:22.651Z,1250
2019-05-19T10:39:32.671Z,1190
2019-05-19T10:40:42.400Z,1235
2019-05-19T10:41:52.362Z,1290
2019-05-19T10:43:02.077Z,1265
2019-05-19T10:44:12.075Z,1255
2019-05-19T10:45:22.062Z,1245
2019-05-19T10:46:32.114Z,535
2019-05-19T10:47:42.082Z,540
2019-05-19T10:48:52.052Z,545
2019-05-19T10:50:02.016Z,1255
2019-05-19T10:51:11.735Z,555
2019-05-19T10:52:21.290Z,535
2019-05-19T10:53:31.260Z,555
2019-05-19T10:54:41.375Z,550
2019-05-19T10:55:51.078Z,550
2019-05-19T10:57:00.548Z,565
2019-05-19T10:58:10.270Z,585
2019-05-19T10:59:19.783Z,650
2019-05-19T11:00:29.510Z,660
2019-05-19T11:01:39.229Z,670
2019-05-19T11:02:48.937Z,660
2019-05-19T11:03:59.009Z,610
2019-05-19T11:05:11.118Z,595
2019-05-19T11:06:21.158Z,680
2019-05-19T11:07:31.137Z,585
2019-05-19T11:08:41.001Z,520
2019-05-19T11:09:50.995Z,470
2019-05-19T11:11:00.743Z,440
2019-05-19T11:12:10.493Z,455
2019-05-19T11:13:20.218Z,505
2019-05-19T11:14:30.175Z,1550
2019-05-19T11:15:39.651Z,1665
2019-05-19T11:16:49.611Z,1710
2019-05-19T11:17:59.577Z,1705
2019-05-19T11:19:09.292Z,690
2019-05-19T11:20:19.384Z,1800
2019-05-19T11:21:29.342Z,1015
2019-05-19T11:22:39.064Z,775
2019-05-19T11:23:49.011Z,1645
2019-05-19T11:24:58.747Z,640
2019-05-19T11:26:08.452Z,595
2019-05-19T11:27:19.429Z,535
2019-05-19T11:28:28.899Z,515
2019-05-19T11:29:38.608Z,520
2019-05-19T11:30:48.785Z,600
2019-05-19T11:31:58.526Z,1430
2019-05-19T11:33:08.512Z,1940
2019-05-19T11:34:18.518Z,1875
2019-05-19T11:35:28.239Z,1865
2019-05-19T11:36:37.980Z,1950
2019-05-19T11:37:47.955Z,2030
2019-05-19T11:38:57.437Z,905
2019-05-19T11:40:07.421Z,1110
2019-05-19T11:41:17.384Z,1795
2019-05-19T11:42:27.438Z,1835
2019-05-19T11:43:37.413Z,615
2019-05-19T11:44:47.395Z,1895
2019-05-19T11:45:57.372Z,2025
2019-05-19T11:47:07.121Z,2085
2019-05-19T11:48:17.102Z,2095
2019-05-19T11:49:27.129Z,1890
2019-05-19T11:50:36.842Z,1875
2019-05-19T11:51:46.408Z,2030
2019-05-19T11:52:56.373Z,2070
2019-05-19T11:54:06.335Z,2125
2019-05-19T11:55:16.312Z,2170
2019-05-19T11:56:26.275Z,2095
2019-05-19T11:57:36.001Z,855
2019-05-19T11:58:45.725Z,2060
2019-05-19T11:59:55.707Z,2025
2019-05-19T12:01:05.734Z,2015
2019-05-19T12:02:15.703Z,1955
2019-05-19T12:03:25.652Z,1980
2019-05-19T12:04:35.743Z,1985
2019-05-19T12:05:45.854Z,2005
2019-05-19T12:06:55.840Z,2165
2019-05-19T12:08:05.555Z,2170
2019-05-19T12:09:15.295Z,2230
2019-05-19T12:10:25.295Z,2210
2019-05-19T12:11:35.020Z,2290
2019-05-19T12:12:45.044Z,2240
2019-05-19T12:13:54.755Z,2205
2019-05-19T12:15:04.734Z,2190
2019-05-19T12:16:14.210Z,2225
2019-05-19T12:17:23.925Z,2265
2019-05-19T12:18:34.115Z,2250
2019-05-19T12:19:44.086Z,2150
2019-05-19T12:20:54.088Z,2135
2019-05-19T12:22:04.085Z,2180
2019-05-19T12:23:14.056Z,2190
2019-05-19T12:24:23.803Z,2210
2019-05-19T12:25:33.810Z,2285
2019-05-19T12:26:44.348Z,2410
2019-05-19T12:27:54.081Z,2595
2019-05-19T12:29:04.050Z,2265
2019-05-19T12:30:14.031Z,2140
2019-05-19T12:31:24.038Z,2175
2019-05-19T12:32:33.828Z,2175
2019-05-19T12:33:58.278Z,2180
2019-05-19T12:35:08.263Z,2120
2019-05-19T12:36:18.276Z,2250
2019-05-19T12:37:28.251Z,2300
2019-05-19T12:38:38.222Z,2345
2019-05-19T12:39:47.949Z,2330
2019-05-19T12:40:57.678Z,2365
2019-05-19T12:42:07.661Z,2325
2019-05-19T12:43:17.440Z,2340
2019-05-19T12:44:27.427Z,2175
2019-05-19T12:45:37.515Z,2150
2019-05-19T12:46:47.015Z,2340
2019-05-19T12:47:57.000Z,2315
2019-05-19T12:49:06.813Z,2260
2019-05-19T12:50:17.358Z,2200
2019-05-19T12:51:29.394Z,2245
2019-05-19T12:52:39.419Z,2335
2019-05-19T12:53:49.414Z,2435
2019-05-19T12:54:59.303Z,2410
2019-05-19T12:56:09.047Z,2245
2019-05-19T12:57:21.139Z,2455
2019-05-19T12:58:31.038Z,2360
2019-05-19T12:59:41.026Z,2275
2019-05-19T13:00:51.028Z,2455
2019-05-19T13:02:00.795Z,2495
2019-05-19T13:03:10.901Z,2280
2019-05-19T13:04:20.751Z,2370
2019-05-19T13:05:30.738Z,2585
2019-05-19T13:06:40.725Z,2535
2019-05-19T13:07:50.715Z,2465
2019-05-19T13:09:00.496Z,2450
2019-05-19T13:10:10.529Z,2445
2019-05-19T13:11:19.767Z,2430
2019-05-19T13:12:29.511Z,2400
2019-05-19T13:13:39.553Z,2335
2019-05-19T13:14:49.035Z,2325
2019-05-19T13:15:59.004Z,2380
2019-05-19T13:17:08.988Z,2495
2019-05-19T13:18:19.005Z,2405
2019-05-19T13:19:29.090Z,2290
2019-05-19T13:20:39.082Z,2415
2019-05-19T13:21:49.045Z,2480
2019-05-19T13:22:59.057Z,2480
2019-05-19T13:24:09.075Z,2520
2019-05-19T13:25:18.806Z,2410
2019-05-19T13:26:28.623Z,2410
2019-05-19T13:27:38.090Z,2365
2019-05-19T13:28:47.863Z,2355
2019-05-19T13:29:57.588Z,2445
2019-05-19T13:31:07.579Z,2480
2019-05-19T13:32:17.553Z,2370
2019-05-19T13:33:27.557Z,2445
2019-05-19T13:34:37.307Z,2445
2019-05-19T13:35:47.294Z,2500
2019-05-19T13:36:57.275Z,2615
2019-05-19T13:38:07.002Z,2545
2019-05-19T13:39:16.993Z,2420
2019-05-19T13:40:26.746Z,2305
2019-05-19T13:41:36.709Z,685
2019-05-19T13:42:46.773Z,540
2019-05-19T13:43:59.487Z,470
2019-05-19T13:45:09.198Z,395
2019-05-19T13:46:19.176Z,345
2019-05-19T13:47:28.899Z,305
2019-05-19T13:48:38.899Z,275
2019-05-19T13:49:48.733Z,260
2019-05-19T13:50:58.461Z,255
2019-05-19T13:52:08.485Z,255
2019-05-19T13:53:18.458Z,260
2019-05-19T13:54:27.926Z,275
2019-05-19T13:55:37.919Z,290
2019-05-19T13:56:47.672Z,305
2019-05-19T13:57:57.399Z,320
2019-05-19T13:59:07.393Z,340
2019-05-19T14:00:17.378Z,365
2019-05-19T14:01:37.834Z,385
2019-05-19T14:02:47.583Z,415
2019-05-19T14:03:59.440Z,455
2019-05-19T14:05:09.431Z,510
2019-05-19T14:06:19.424Z,590
2019-05-19T14:07:29.396Z,1895
2019-05-19T14:08:39.434Z,2050
2019-05-19T14:09:49.457Z,1965
2019-05-19T14:10:59.442Z,1780
2019-05-19T14:12:09.425Z,1935
2019-05-19T14:13:19.395Z,2095
2019-05-19T14:14:28.910Z,2195
2019-05-19T14:15:38.888Z,2065
2019-05-19T14:16:48.363Z,1910
2019-05-19T14:17:58.351Z,685
2019-05-19T14:19:08.359Z,605
2019-05-19T14:20:18.151Z,560
2019-05-19T14:21:28.294Z,545
2019-05-19T14:22:38.420Z,540
2019-05-19T14:23:48.399Z,505
2019-05-19T14:24:58.383Z,470
2019-05-19T14:26:08.147Z,465
2019-05-19T14:27:33.975Z,440
2019-05-19T14:28:43.997Z,440
2019-05-19T14:29:53.987Z,455
2019-05-19T14:31:03.707Z,490
2019-05-19T14:32:13.550Z,555
2019-05-19T14:33:23.324Z,650
2019-05-19T14:34:33.300Z,1240
2019-05-19T14:35:43.038Z,1560
2019-05-19T14:36:53.024Z,1735
2019-05-19T14:38:02.530Z,1080
2019-05-19T14:39:15.545Z,725
2019-05-19T14:40:25.542Z,1390
2019-05-19T14:41:43.304Z,620
2019-05-19T14:42:53.286Z,625
2019-05-19T14:44:03.302Z,665
2019-05-19T14:45:13.293Z,965
2019-05-19T14:46:23.281Z,1460
2019-05-19T14:47:33.716Z,1535
2019-05-19T14:48:43.790Z,1235
2019-05-19T14:49:55.223Z,1940
2019-05-19T14:51:04.949Z,1215
2019-05-19T14:52:14.944Z,405
2019-05-19T14:53:24.971Z,325
2019-05-19T14:54:34.775Z,265
2019-05-19T14:55:44.508Z,230
2019-05-19T14:56:54.538Z,230
2019-05-19T14:58:04.535Z,235
2019-05-19T14:59:14.564Z,245
2019-05-19T15:00:24.599Z,255
2019-05-19T15:01:34.324Z,265
2019-05-19T15:02:44.057Z,280
2019-05-19T15:03:53.524Z,305
2019-05-19T15:05:03.489Z,335
2019-05-19T15:06:13.484Z,370
2019-05-19T15:07:23.458Z,405
2019-05-19T15:08:33.444Z,445
2019-05-19T15:09:43.408Z,485
2019-05-19T15:10:53.177Z,535
2019-05-19T15:12:03.232Z,600
2019-05-19T15:13:12.953Z,1470
2019-05-19T15:14:22.930Z,1810
2019-05-19T15:15:32.914Z,1735
2019-05-19T15:16:42.888Z,1290
2019-05-19T15:17:52.889Z,400
2019-05-19T15:19:02.360Z,630
2019-05-19T15:20:12.092Z,435
2019-05-19T15:21:22.056Z,295
2019-05-19T15:22:32.018Z,250
2019-05-19T15:23:41.997Z,225
2019-05-19T15:24:51.783Z,205
2019-05-19T15:26:01.756Z,190
2019-05-19T15:27:11.731Z,180
2019-05-19T15:28:21.707Z,170
2019-05-19T15:29:31.672Z,170
2019-05-19T15:30:41.643Z,170
2019-05-19T15:31:51.096Z,170
2019-05-19T15:33:01.077Z,180
2019-05-19T15:34:10.920Z,195
2019-05-19T15:35:20.915Z,210
2019-05-19T15:36:30.903Z,220
2019-05-19T15:37:40.621Z,235
2019-05-19T15:38:50.117Z,250
2019-05-19T15:39:59.833Z,265
2019-05-19T15:41:09.811Z,290
2019-05-19T15:42:19.534Z,305
2019-05-19T15:43:29.251Z,335
2019-05-19T15:44:38.971Z,350
2019-05-19T15:45:48.946Z,365
2019-05-19T15:46:58.669Z,380
2019-05-19T15:48:08.408Z,380
2019-05-19T15:49:18.408Z,395
2019-05-19T15:50:28.135Z,410
2019-05-19T15:52:07.556Z,430
2019-05-19T15:53:17.297Z,445
2019-05-19T15:54:26.767Z,475
2019-05-19T15:55:36.781Z,720
2019-05-19T15:56:46.838Z,1155
2019-05-19T15:57:56.566Z,1210
2019-05-19T15:59:06.282Z,1260
2019-05-19T16:00:16.294Z,1160
2019-05-19T16:01:26.266Z,590
2019-05-19T16:02:36.252Z,920
2019-05-19T16:03:46.232Z,925
2019-05-19T16:04:56.214Z,850
2019-05-19T16:06:05.710Z,805
2019-05-19T16:07:15.409Z,855
2019-05-19T16:08:25.382Z,1000
2019-05-19T16:09:35.383Z,1035
2019-05-19T16:10:45.365Z,975
2019-05-19T16:11:55.103Z,875
2019-05-19T16:13:05.133Z,705